Time;durP1;ratioP1;P1;durP2;ratioP2;P2;SDS_P1;SDS_P2;PMS_P1;PMS_P2;Temp;Humidity;BMP_temperature;BMP_pressure;BME280_temperature;BME280_humidity;BME280_pressure;Samples;Min_cycle;Max_cycle;Signal;HPM_P1;HPM_P2
2022/08/12 00:44:58;;;;;;;4.53;3.17;;;;;;;;;;5009450;28;20113;-75
2022/08/12 00:47:24;;;;;;;5.13;2.78;;;;;;;;;;5008352;28;20527;-75
2022/08/12 00:49:50;;;;;;;4.80;2.95;;;;;;;;;;5009446;28;20033;-76
2022/08/12 00:52:17;;;;;;;3.35;2.80;;;;;;;;;;5009051;28;20076;-75
2022/08/12 00:54:47;;;;;;;4.10;2.97;;;;;;;;;;5009581;28;20497;-76
2022/08/12 00:57:18;;;;;;;6.70;3.13;;;;;;;;;;5009517;28;20061;-76
2022/08/12 00:59:44;;;;;;;4.55;2.80;;;;;;;;;;5009622;28;20107;-75
2022/08/12 01:02:22;;;;;;;3.72;2.90;;;;;;;;;;5009260;28;20029;-76
2022/08/12 01:13:13;;;;;;;4.45;2.80;;;;;;;;;;5009554;28;20065;-75
2022/08/12 01:15:38;;;;;;;6.57;3.00;;;;;;;;;;5009327;28;20038;-76
2022/08/12 01:18:04;;;;;;;5.70;3.20;;;;;;;;;;5009313;28;20038;-76
2022/08/12 01:20:59;;;;;;;4.65;2.95;;;;;;;;;;5009107;28;20030;-76
2022/08/12 01:23:51;;;;;;;5.20;3.15;;;;;;;;;;5026396;28;20038;-77
2022/08/12 01:26:19;;;;;;;5.43;3.20;;;;;;;;;;5008922;28;20030;-77
2022/08/12 01:28:47;;;;;;;5.20;3.20;;;;;;;;;;5009185;28;20036;-77
2022/08/12 01:31:16;;;;;;;5.03;3.53;;;;;;;;;;5009082;28;20367;-76
2022/08/12 01:33:58;;;;;;;5.28;3.42;;;;;;;;;;5008771;28;20033;-76
2022/08/12 01:36:27;;;;;;;5.05;3.78;;;;;;;;;;5008916;28;20022;-76
2022/08/12 01:38:56;;;;;;;4.85;3.38;;;;;;;;;;5008811;28;20033;-74
2022/08/12 01:41:24;;;;;;;6.53;3.40;;;;;;;;;;5008674;28;20026;-76
2022/08/12 01:43:53;;;;;;;4.63;3.90;;;;;;;;;;5008604;28;20025;-76
2022/08/12 01:46:28;;;;;;;5.32;3.67;;;;;;;;;;5008339;28;20121;-76
2022/08/12 01:49:16;;;;;;;4.47;3.90;;;;;;;;;;5008721;28;20110;-75
2022/08/12 01:51:45;;;;;;;4.55;3.70;;;;;;;;;;5008409;28;20018;-75
2022/08/12 01:54:18;;;;;;;5.57;4.00;;;;;;;;;;5008659;28;20075;-76
2022/08/12 01:56:50;;;;;;;5.78;4.13;;;;;;;;;;5008576;28;20022;-76
2022/08/12 02:02:14;;;;;;;5.95;3.70;;;;;;;;;;5008360;28;20036;-76
2022/08/12 02:11:17;;;;;;;5.50;4.35;;;;;;;;;;5008783;28;20636;-75
2022/08/12 02:14:13;;;;;;;6.07;4.30;;;;;;;;;;5008074;28;20026;-76
2022/08/12 02:16:44;;;;;;;5.43;4.00;;;;;;;;;;5008342;28;20038;-77
2022/08/12 02:19:45;;;;;;;6.50;4.10;;;;;;;;;;5008202;28;20026;-76
2022/08/12 02:22:29;;;;;;;6.43;4.18;;;;;;;;;;5007953;28;20516;-75
2022/08/12 02:25:18;;;;;;;6.28;4.20;;;;;;;;;;5008248;28;20026;-76
2022/08/12 02:27:49;;;;;;;5.63;4.43;;;;;;;;;;5007284;28;20034;-76
2022/08/12 02:30:18;;;;;;;6.18;4.40;;;;;;;;;;5008431;28;20036;-75
2022/08/12 02:32:45;;;;;;;5.00;4.10;;;;;;;;;;5007727;28;20022;-76
2022/08/12 02:35:18;;;;;;;5.78;4.18;;;;;;;;;;5007846;28;20097;-76
2022/08/12 02:37:46;;;;;;;5.97;4.25;;;;;;;;;;5007802;28;20044;-76
2022/08/12 02:40:13;;;;;;;7.35;4.53;;;;;;;;;;5007996;28;20059;-76
2022/08/12 02:42:57;;;;;;;7.53;4.90;;;;;;;;;;5007779;28;20030;-76
2022/08/12 02:45:41;;;;;;;7.55;4.40;;;;;;;;;;5007858;28;20517;-77
2022/08/12 02:48:09;;;;;;;6.80;4.40;;;;;;;;;;5007882;28;20082;-79
2022/08/12 02:50:40;;;;;;;5.55;4.40;;;;;;;;;;5007800;28;20121;-78
2022/08/12 02:53:07;;;;;;;6.82;4.93;;;;;;;;;;5007393;28;20079;-78
2022/08/12 02:55:35;;;;;;;7.18;5.07;;;;;;;;;;5007642;28;20117;-78
2022/08/12 02:58:08;;;;;;;8.93;4.88;;;;;;;;;;5007814;28;20040;-79
2022/08/12 03:00:36;;;;;;;5.55;4.45;;;;;;;;;;5007836;28;20025;-78
2022/08/12 03:03:05;;;;;;;8.63;4.80;;;;;;;;;;5006790;28;20045;-79
2022/08/12 03:05:34;;;;;;;5.60;4.93;;;;;;;;;;5007283;28;20049;-78
2022/08/12 03:08:03;;;;;;;6.25;4.97;;;;;;;;;;5007442;28;20718;-78
2022/08/12 03:10:34;;;;;;;5.72;4.55;;;;;;;;;;5007643;28;20130;-79
2022/08/12 03:13:02;;;;;;;7.05;4.78;;;;;;;;;;5007301;28;20033;-77
2022/08/12 03:15:29;;;;;;;6.53;5.00;;;;;;;;;;5007536;28;20033;-79
2022/08/12 03:18:02;;;;;;;7.95;5.18;;;;;;;;;;5007487;28;20034;-78
2022/08/12 03:20:27;;;;;;;6.25;4.93;;;;;;;;;;5007645;28;20026;-78
2022/08/12 03:22:53;;;;;;;7.38;4.97;;;;;;;;;;5007104;28;20036;-77
2022/08/12 03:25:23;;;;;;;8.20;5.07;;;;;;;;;;5007234;28;20045;-78
2022/08/12 03:27:54;;;;;;;6.70;5.05;;;;;;;;;;5007178;28;20045;-78
2022/08/12 03:30:28;;;;;;;7.80;4.93;;;;;;;;;;5007118;28;20022;-78
2022/08/12 03:32:54;;;;;;;6.45;5.20;;;;;;;;;;5007227;28;20109;-78
2022/08/12 03:35:25;;;;;;;8.25;5.25;;;;;;;;;;5007221;28;20026;-78
2022/08/12 03:37:56;;;;;;;9.73;5.35;;;;;;;;;;5007122;28;20018;-79
2022/08/12 04:02:37;;;;;;;7.00;5.30;;;;;;;;;;5006741;28;20106;-79
2022/08/12 04:05:03;;;;;;;8.73;5.10;;;;;;;;;;5006461;28;20077;-79
2022/08/12 04:07:30;;;;;;;5.85;4.80;;;;;;;;;;5005496;28;20507;-78
2022/08/12 04:09:56;;;;;;;7.50;4.57;;;;;;;;;;5006851;28;20029;-78
2022/08/12 04:15:11;;;;;;;5.97;4.60;;;;;;;;;;5010438;28;20549;-78
2022/08/12 04:17:38;;;;;;;10.13;4.85;;;;;;;;;;5010160;28;20029;-77
2022/08/12 04:20:10;;;;;;;6.10;4.70;;;;;;;;;;5009993;28;20022;-77
2022/08/12 04:22:37;;;;;;;7.88;4.95;;;;;;;;;;5009599;28;20474;-78
2022/08/12 04:25:03;;;;;;;6.75;5.00;;;;;;;;;;5010171;28;20037;-77
2022/08/12 04:27:30;;;;;;;6.15;5.25;;;;;;;;;;5010077;28;20114;-77
2022/08/12 04:29:57;;;;;;;6.50;5.00;;;;;;;;;;5009974;28;20527;-79
2022/08/12 04:32:25;;;;;;;7.97;5.20;;;;;;;;;;5010047;28;20670;-78
2022/08/12 04:34:51;;;;;;;6.90;4.80;;;;;;;;;;5009652;28;20034;-76
2022/08/12 04:37:17;;;;;;;7.25;5.25;;;;;;;;;;5009649;28;20033;-77
2022/08/12 04:39:44;;;;;;;6.85;5.13;;;;;;;;;;5009773;28;20033;-78
2022/08/12 04:42:10;;;;;;;7.32;5.35;;;;;;;;;;5009811;28;20039;-76
2022/08/12 04:44:35;;;;;;;7.45;5.40;;;;;;;;;;5009580;28;20030;-76
2022/08/12 04:47:00;;;;;;;6.75;5.53;;;;;;;;;;5009526;28;20014;-77
2022/08/12 04:49:27;;;;;;;5.90;5.30;;;;;;;;;;5009744;28;20572;-77
2022/08/12 04:51:54;;;;;;;9.10;5.65;;;;;;;;;;5009467;28;20029;-78
2022/08/12 04:54:23;;;;;;;10.32;5.47;;;;;;;;;;5009300;28;20592;-79
2022/08/12 04:56:52;;;;;;;10.48;5.55;;;;;;;;;;5009374;28;20029;-77
2022/08/12 04:59:18;;;;;;;11.93;6.03;;;;;;;;;;5009296;28;20038;-78
2022/08/12 05:01:50;;;;;;;6.68;5.80;;;;;;;;;;5009536;28;20030;-78
2022/08/12 05:04:17;;;;;;;9.60;6.05;;;;;;;;;;5009868;28;20022;-76
2022/08/12 05:06:42;;;;;;;10.68;6.07;;;;;;;;;;5009119;28;20051;-76
2022/08/12 05:09:08;;;;;;;8.23;5.80;;;;;;;;;;5009377;28;20028;-76
2022/08/12 05:11:35;;;;;;;7.30;5.90;;;;;;;;;;5009396;28;20033;-77
2022/08/12 05:14:01;;;;;;;9.55;6.20;;;;;;;;;;5009296;28;20058;-76
2022/08/12 05:16:26;;;;;;;8.82;6.03;;;;;;;;;;5009163;28;20118;-77
2022/08/12 05:18:52;;;;;;;8.25;5.60;;;;;;;;;;5009369;28;20026;-77
2022/08/12 05:21:17;;;;;;;7.45;5.65;;;;;;;;;;5009108;28;20026;-77
2022/08/12 05:23:43;;;;;;;8.85;6.18;;;;;;;;;;5008979;28;20040;-77
2022/08/12 05:26:09;;;;;;;8.00;5.97;;;;;;;;;;5008440;28;20039;-76
2022/08/12 05:28:34;;;;;;;8.68;5.63;;;;;;;;;;5009122;28;20026;-76
2022/08/12 05:31:03;;;;;;;8.85;5.70;;;;;;;;;;5007596;28;20028;-77
2022/08/12 05:33:39;;;;;;;8.00;6.18;;;;;;;;;;5008798;28;20029;-77
2022/08/12 05:36:07;;;;;;;8.25;5.88;;;;;;;;;;5009056;28;20034;-76
2022/08/12 05:41:19;;;;;;;9.80;6.40;;;;;;;;;;5009207;28;20543;-78
2022/08/12 05:43:50;;;;;;;10.65;6.18;;;;;;;;;;5008551;28;20036;-77
2022/08/12 05:46:20;;;;;;;9.32;6.47;;;;;;;;;;5008592;28;20417;-76
2022/08/12 05:48:46;;;;;;;10.75;6.35;;;;;;;;;;5008995;28;20050;-77
2022/08/12 05:51:11;;;;;;;8.18;6.38;;;;;;;;;;5008358;28;20022;-77
2022/08/12 05:53:38;;;;;;;10.30;6.70;;;;;;;;;;5008509;28;20026;-77
2022/08/12 05:56:04;;;;;;;8.70;6.40;;;;;;;;;;5008810;28;20054;-77
2022/08/12 05:58:29;;;;;;;9.68;6.03;;;;;;;;;;5008667;28;20061;-77
2022/08/12 06:00:55;;;;;;;9.63;6.55;;;;;;;;;;5008873;28;20068;-77
2022/08/12 06:03:22;;;;;;;8.00;6.47;;;;;;;;;;5008400;28;20022;-76
2022/08/12 06:05:48;;;;;;;10.15;6.45;;;;;;;;;;5008240;28;20481;-77
2022/08/12 06:08:15;;;;;;;7.78;6.47;;;;;;;;;;5006943;28;20485;-76
2022/08/12 06:10:40;;;;;;;9.43;6.60;;;;;;;;;;5008201;28;20026;-77
2022/08/12 06:13:06;;;;;;;8.30;6.70;;;;;;;;;;5008613;28;20032;-76
2022/08/12 06:15:36;;;;;;;10.85;6.32;;;;;;;;;;5008207;28;20022;-77
2022/08/12 06:18:09;;;;;;;8.07;6.30;;;;;;;;;;5008384;28;20026;-77
2022/08/12 06:20:35;;;;;;;10.55;6.60;;;;;;;;;;5008204;28;20615;-77
2022/08/12 06:23:01;;;;;;;10.43;6.40;;;;;;;;;;5008033;28;20112;-76
2022/08/12 06:25:28;;;;;;;13.40;6.38;;;;;;;;;;5007916;28;20499;-76
2022/08/12 06:27:57;;;;;;;9.73;6.20;;;;;;;;;;5008147;28;20018;-77
2022/08/12 06:30:24;;;;;;;8.68;6.65;;;;;;;;;;5008189;28;20030;-77
2022/08/12 06:32:51;;;;;;;10.85;6.80;;;;;;;;;;5008161;28;20599;-77
2022/08/12 06:35:18;;;;;;;10.57;6.90;;;;;;;;;;5008056;28;20064;-77
2022/08/12 06:37:47;;;;;;;7.53;6.45;;;;;;;;;;5006879;28;20044;-76
2022/08/12 06:40:13;;;;;;;10.68;5.85;;;;;;;;;;5008057;28;20050;-76
2022/08/12 06:42:53;;;;;;;8.55;5.97;;;;;;;;;;5007995;28;20037;-76
2022/08/12 06:45:18;;;;;;;10.43;6.70;;;;;;;;;;5007623;28;20044;-77
2022/08/12 06:47:44;;;;;;;9.07;6.30;;;;;;;;;;5007719;28;20030;-77
2022/08/12 06:50:15;;;;;;;12.57;6.60;;;;;;;;;;5007963;28;20536;-77
2022/08/12 06:52:44;;;;;;;;;;;;;;;;;;5008424;28;20055;-76
2022/08/12 06:55:14;;;;;;;11.82;6.10;;;;;;;;;;5006153;28;20373;-77
2022/08/12 06:57:53;;;;;;;;;;;;;;;;;;5008017;28;20100;-76
2022/08/12 07:00:25;;;;;;;10.10;6.40;;;;;;;;;;5007525;28;20282;-75
2022/08/12 07:02:54;;;;;;;9.23;5.68;;;;;;;;;;5007616;28;20107;-77
2022/08/12 07:05:23;;;;;;;7.97;6.20;;;;;;;;;;5007256;28;20053;-77
2022/08/12 07:07:51;;;;;;;7.00;5.95;;;;;;;;;;5007451;28;20022;-78
2022/08/12 07:10:18;;;;;;;11.75;6.50;;;;;;;;;;5007691;28;20191;-75
2022/08/12 07:12:44;;;;;;;9.50;6.10;;;;;;;;;;5007600;28;20022;-75
2022/08/12 07:15:10;;;;;;;12.52;5.57;;;;;;;;;;5005980;28;20034;-75
2022/08/12 07:17:38;;;;;;;9.13;5.70;;;;;;;;;;5007205;28;20034;-76
2022/08/12 07:20:08;;;;;;;8.20;5.70;;;;;;;;;;5006098;28;20666;-76
2022/08/12 07:22:33;;;;;;;9.50;5.80;;;;;;;;;;5007277;28;20026;-75
2022/08/12 07:27:44;;;;;;;7.75;5.57;;;;;;;;;;5007382;28;20086;-75
2022/08/12 07:30:10;;;;;;;9.02;5.45;;;;;;;;;;5007236;28;20018;-75
2022/08/12 07:32:35;;;;;;;8.65;5.50;;;;;;;;;;5005883;28;20175;-75
2022/08/12 07:35:02;;;;;;;8.13;5.25;;;;;;;;;;5006975;28;20033;-74
2022/08/12 07:37:28;;;;;;;11.73;5.00;;;;;;;;;;5007043;28;20029;-76
2022/08/12 07:39:57;;;;;;;8.43;5.13;;;;;;;;;;5005933;28;20030;-74
2022/08/12 07:42:23;;;;;;;8.93;5.40;;;;;;;;;;5007096;28;20030;-75
2022/08/12 07:44:48;;;;;;;8.15;5.13;;;;;;;;;;5007033;28;20500;-76
2022/08/12 07:47:13;;;;;;;7.45;4.95;;;;;;;;;;5006930;28;20097;-76
2022/08/12 07:49:39;;;;;;;6.53;4.90;;;;;;;;;;5009824;28;20030;-76
2022/08/12 07:52:04;;;;;;;7.25;4.60;;;;;;;;;;5010357;28;20389;-76
2022/08/12 07:54:30;;;;;;;6.22;5.10;;;;;;;;;;5010307;28;20137;-76
2022/08/12 07:56:56;;;;;;;6.78;4.28;;;;;;;;;;5010609;28;20026;-77
2022/08/12 07:59:22;;;;;;;9.90;5.03;;;;;;;;;;5010587;28;20030;-78
2022/08/12 08:01:48;;;;;;;7.43;5.00;;;;;;;;;;5010357;28;20599;-78
2022/08/12 08:06:59;;;;;;;7.93;5.53;;;;;;;;;;5010445;28;20044;-78
2022/08/12 08:09:24;;;;;;;8.68;5.28;;;;;;;;;;5010392;28;20018;-78
2022/08/12 08:14:35;;;;;;;7.10;5.40;;;;;;;;;;5010357;28;20501;-76
2022/08/12 08:17:05;;;;;;;8.23;5.82;;;;;;;;;;5010494;28;20030;-77
2022/08/12 08:19:32;;;;;;;8.98;6.53;;;;;;;;;;5010316;28;20029;-77
2022/08/12 08:21:58;;;;;;;10.50;6.70;;;;;;;;;;5009739;28;20635;-76
2022/08/12 08:24:26;;;;;;;10.18;7.15;;;;;;;;;;5010001;28;20134;-77
2022/08/12 08:26:55;;;;;;;10.85;7.00;;;;;;;;;;5010135;28;20045;-77
2022/08/12 08:29:22;;;;;;;11.15;6.40;;;;;;;;;;5009884;28;20075;-77
2022/08/12 08:31:49;;;;;;;11.02;6.85;;;;;;;;;;5010048;28;20029;-77
2022/08/12 08:34:16;;;;;;;8.85;6.60;;;;;;;;;;5009843;28;20022;-78
2022/08/12 08:36:43;;;;;;;14.88;6.97;;;;;;;;;;5009743;28;20030;-78
2022/08/12 08:39:09;;;;;;;9.90;6.60;;;;;;;;;;5009794;28;20026;-78
2022/08/12 08:44:20;;;;;;;12.20;6.72;;;;;;;;;;5009820;28;20036;-77
2022/08/12 08:46:48;;;;;;;15.23;7.30;;;;;;;;;;5009550;28;20116;-76
2022/08/12 08:49:14;;;;;;;12.63;6.97;;;;;;;;;;5009538;28;20031;-77
2022/08/12 08:51:41;;;;;;;14.43;6.60;;;;;;;;;;5009522;28;20038;-76
2022/08/12 08:54:10;;;;;;;10.20;6.90;;;;;;;;;;5009658;28;20026;-76
2022/08/12 08:56:42;;;;;;;10.98;7.00;;;;;;;;;;5009472;28;20034;-77
2022/08/12 08:59:07;;;;;;;8.90;6.70;;;;;;;;;;5009269;28;20067;-77
2022/08/12 09:01:33;;;;;;;8.43;6.18;;;;;;;;;;5008425;28;20029;-76
2022/08/12 09:03:58;;;;;;;8.70;6.50;;;;;;;;;;5009366;28;20021;-77
2022/08/12 09:06:24;;;;;;;11.93;6.30;;;;;;;;;;5008756;28;20596;-76
2022/08/12 09:08:49;;;;;;;12.07;6.80;;;;;;;;;;5009403;28;20105;-78
2022/08/12 09:13:59;;;;;;;10.13;6.22;;;;;;;;;;5009285;28;20071;-77
2022/08/12 09:16:24;;;;;;;13.10;6.97;;;;;;;;;;5009390;28;20401;-77
2022/08/12 09:18:49;;;;;;;11.55;7.07;;;;;;;;;;5009185;28;20030;-77
2022/08/12 09:21:15;;;;;;;11.48;6.90;;;;;;;;;;5008823;28;20026;-77
2022/08/12 09:23:41;;;;;;;12.43;7.30;;;;;;;;;;5009004;28;20537;-77
2022/08/12 09:26:08;;;;;;;11.07;7.70;;;;;;;;;;5009030;28;20113;-75
2022/08/12 09:28:34;;;;;;;11.90;7.47;;;;;;;;;;5009021;28;20030;-77
2022/08/12 09:31:00;;;;;;;10.52;7.22;;;;;;;;;;5009171;28;20481;-76
2022/08/12 09:33:32;;;;;;;12.00;8.00;;;;;;;;;;5009147;28;20030;-78
2022/08/12 09:35:59;;;;;;;11.80;7.68;;;;;;;;;;5008661;28;20366;-78
2022/08/12 09:38:25;;;;;;;10.52;7.85;;;;;;;;;;5007480;28;20048;-78
2022/08/12 09:40:50;;;;;;;10.77;7.50;;;;;;;;;;5008849;28;20022;-77
2022/08/12 09:46:01;;;;;;;11.57;7.53;;;;;;;;;;5008677;28;20129;-78
2022/08/12 09:48:28;;;;;;;9.25;7.57;;;;;;;;;;5008923;28;20069;-78
2022/08/12 09:50:53;;;;;;;10.23;7.72;;;;;;;;;;5008828;28;20389;-77
2022/08/12 09:53:24;;;;;;;12.05;7.75;;;;;;;;;;5008518;28;20026;-77
2022/08/12 09:55:55;;;;;;;11.75;7.75;;;;;;;;;;5007020;28;20061;-77
2022/08/12 09:58:29;;;;;;;14.02;7.93;;;;;;;;;;5007323;28;20036;-78
2022/08/12 10:00:56;;;;;;;10.15;7.93;;;;;;;;;;5008736;28;20618;-78
2022/08/12 10:03:25;;;;;;;14.00;7.30;;;;;;;;;;5008722;28;20026;-79
2022/08/12 10:05:52;;;;;;;12.63;8.13;;;;;;;;;;5008210;28;20049;-78
2022/08/12 10:08:18;;;;;;;12.43;7.38;;;;;;;;;;5008325;28;20026;-79
2022/08/12 10:13:41;;;;;;;10.48;7.50;;;;;;;;;;5008502;28;20032;-78
2022/08/12 10:16:16;;;;;;;12.77;7.60;;;;;;;;;;5006989;28;20025;-77
2022/08/12 10:18:44;;;;;;;13.20;7.90;;;;;;;;;;5006900;28;20404;-76
2022/08/12 10:21:12;;;;;;;12.27;7.72;;;;;;;;;;5008400;28;20114;-76
2022/08/12 10:23:38;;;;;;;10.85;7.15;;;;;;;;;;5006865;28;20037;-77
2022/08/12 10:31:33;;;;;;;12.85;7.40;;;;;;;;;;5008067;28;20037;-75
2022/08/12 10:33:58;;;;;;;10.48;7.30;;;;;;;;;;5008275;28;20030;-76
2022/08/12 10:36:24;;;;;;;12.63;7.82;;;;;;;;;;5007855;28;20026;-77
2022/08/12 10:38:51;;;;;;;11.65;7.43;;;;;;;;;;5008305;28;20022;-78
2022/08/12 10:44:04;;;;;;;11.77;6.85;;;;;;;;;;5007983;28;20040;-78
2022/08/12 10:46:30;;;;;;;11.48;7.30;;;;;;;;;;5007524;28;20493;-78
2022/08/12 10:48:56;;;;;;;10.75;6.90;;;;;;;;;;5007787;28;20435;-77
2022/08/12 10:51:21;;;;;;;10.93;7.13;;;;;;;;;;5007739;28;20108;-77
2022/08/12 10:53:47;;;;;;;10.73;6.57;;;;;;;;;;5007908;28;20034;-78
2022/08/12 10:56:14;;;;;;;9.65;6.55;;;;;;;;;;5007912;28;20036;-78
2022/08/12 10:58:40;;;;;;;10.15;7.13;;;;;;;;;;5007850;28;20037;-78
2022/08/12 11:01:09;;;;;;;10.23;6.95;;;;;;;;;;5007741;28;20034;-78
2022/08/12 11:03:38;;;;;;;8.18;6.85;;;;;;;;;;5007609;28;20030;-78
2022/08/12 11:06:06;;;;;;;9.90;7.37;;;;;;;;;;5007042;28;20050;-78
2022/08/12 11:08:34;;;;;;;9.70;7.15;;;;;;;;;;5007440;28;20348;-77
2022/08/12 11:11:00;;;;;;;9.63;6.82;;;;;;;;;;5007642;28;20029;-78
2022/08/12 11:13:25;;;;;;;11.88;7.25;;;;;;;;;;5007588;28;20177;-77
2022/08/12 11:15:54;;;;;;;11.65;7.47;;;;;;;;;;5006821;28;20026;-78
2022/08/12 11:18:21;;;;;;;10.23;7.45;;;;;;;;;;5007048;28;20478;-77
2022/08/12 11:20:47;;;;;;;14.05;7.80;;;;;;;;;;5006683;28;20018;-78
2022/08/12 11:23:12;;;;;;;12.88;7.65;;;;;;;;;;5008224;28;20029;-77
2022/08/12 11:25:38;;;;;;;12.82;7.85;;;;;;;;;;5013053;28;20074;-77
2022/08/12 11:28:03;;;;;;;13.65;8.00;;;;;;;;;;5013174;28;20022;-76
2022/08/12 11:30:28;;;;;;;13.88;7.57;;;;;;;;;;5013140;28;20018;-77
2022/08/12 11:32:54;;;;;;;12.80;7.88;;;;;;;;;;5013097;28;20450;-78
2022/08/12 11:35:20;;;;;;;11.73;7.95;;;;;;;;;;5012968;28;20068;-77
2022/08/12 11:37:45;;;;;;;19.65;8.55;;;;;;;;;;5012747;28;20069;-77
2022/08/12 11:40:11;;;;;;;11.48;9.00;;;;;;;;;;5013180;28;20586;-77
2022/08/12 11:42:37;;;;;;;13.43;8.57;;;;;;;;;;5013124;28;20030;-76
2022/08/12 11:45:03;;;;;;;16.67;8.82;;;;;;;;;;5013022;28;20479;-76
2022/08/12 11:47:29;;;;;;;12.50;9.27;;;;;;;;;;5012755;28;20498;-77
2022/08/12 11:49:54;;;;;;;17.10;9.05;;;;;;;;;;5012815;28;20067;-77
2022/08/12 11:52:20;;;;;;;13.10;8.57;;;;;;;;;;5012494;28;20014;-76
2022/08/12 11:54:45;;;;;;;12.90;8.18;;;;;;;;;;5011679;28;20037;-78
2022/08/12 11:57:11;;;;;;;12.90;9.20;;;;;;;;;;5012761;28;20084;-77
2022/08/12 11:59:36;;;;;;;10.65;9.05;;;;;;;;;;5012814;28;20022;-78
2022/08/12 12:02:01;;;;;;;14.85;8.93;;;;;;;;;;5011679;28;20048;-76
2022/08/12 12:04:27;;;;;;;13.45;9.18;;;;;;;;;;5012679;28;20066;-77
2022/08/12 12:06:52;;;;;;;11.43;8.50;;;;;;;;;;5011832;28;20053;-77
2022/08/12 12:09:18;;;;;;;13.20;8.95;;;;;;;;;;5012662;28;20022;-76
2022/08/12 12:11:44;;;;;;;16.58;8.90;;;;;;;;;;5012818;28;20026;-76
2022/08/12 12:14:09;;;;;;;11.80;8.45;;;;;;;;;;5012729;28;20026;-77
2022/08/12 12:16:36;;;;;;;10.73;8.93;;;;;;;;;;5012630;28;20025;-77
2022/08/12 12:19:01;;;;;;;13.73;9.10;;;;;;;;;;5012954;28;20374;-77
2022/08/12 12:21:26;;;;;;;13.25;9.63;;;;;;;;;;5012077;28;20032;-76
2022/08/12 12:23:53;;;;;;;11.55;9.68;;;;;;;;;;5012394;28;20792;-76
2022/08/12 12:26:18;;;;;;;12.85;9.32;;;;;;;;;;5012342;28;20553;-77
2022/08/12 12:28:44;;;;;;;11.25;9.93;;;;;;;;;;5012602;28;20155;-75
2022/08/12 12:31:09;;;;;;;14.45;9.35;;;;;;;;;;5012646;28;20547;-75
2022/08/12 12:33:34;;;;;;;15.25;9.80;;;;;;;;;;5012578;28;20028;-76
2022/08/12 12:36:00;;;;;;;16.13;9.80;;;;;;;;;;5008769;28;20028;-75
2022/08/12 12:38:26;;;;;;;11.98;10.05;;;;;;;;;;5009191;28;20113;-77
2022/08/12 12:40:51;;;;;;;14.23;9.82;;;;;;;;;;5009260;28;20034;-77
2022/08/12 12:43:17;;;;;;;13.38;10.13;;;;;;;;;;5009177;28;20022;-76
2022/08/12 12:45:44;;;;;;;15.43;9.85;;;;;;;;;;5007531;28;20063;-76
2022/08/12 12:48:18;;;;;;;11.90;9.48;;;;;;;;;;5007701;28;20026;-77
2022/08/12 12:51:14;;;;;;;14.23;9.55;;;;;;;;;;5009095;28;20030;-76
2022/08/12 12:53:35;;;;;;;13.65;9.23;;;;;;;;;;5008738;28;20026;-77
2022/08/12 12:56:01;;;;;;;15.32;9.70;;;;;;;;;;5008844;28;20033;-76
2022/08/12 12:58:28;;;;;;;10.98;8.68;;;;;;;;;;5008697;28;20035;-77
2022/08/12 13:00:58;;;;;;;11.05;8.65;;;;;;;;;;5008820;28;20029;-76
2022/08/12 13:03:24;;;;;;;13.32;9.10;;;;;;;;;;5008986;28;20083;-76
2022/08/12 13:05:51;;;;;;;14.68;9.20;;;;;;;;;;5008536;28;20054;-75
2022/08/12 13:08:23;;;;;;;12.13;9.18;;;;;;;;;;5008586;28;20058;-78
2022/08/12 13:10:49;;;;;;;13.38;9.48;;;;;;;;;;5008728;28;20028;-78
2022/08/12 13:13:17;;;;;;;14.52;9.40;;;;;;;;;;5008791;28;20030;-78
2022/08/12 13:15:43;;;;;;;13.18;9.32;;;;;;;;;;5008524;28;20105;-78
2022/08/12 13:18:09;;;;;;;17.92;9.82;;;;;;;;;;5007021;28;20589;-79
2022/08/12 13:20:36;;;;;;;14.02;9.18;;;;;;;;;;5008822;28;20451;-77
2022/08/12 13:23:02;;;;;;;13.75;9.57;;;;;;;;;;5008356;28;20109;-76
2022/08/12 13:25:27;;;;;;;18.02;9.38;;;;;;;;;;5008368;28;20113;-77
2022/08/12 13:27:54;;;;;;;14.40;9.27;;;;;;;;;;5008472;28;20026;-77
2022/08/12 13:30:22;;;;;;;12.50;8.98;;;;;;;;;;5008411;28;20014;-77
2022/08/12 13:32:56;;;;;;;11.50;8.88;;;;;;;;;;5008188;28;20026;-77
2022/08/12 13:35:21;;;;;;;16.60;8.98;;;;;;;;;;5008425;28;20045;-78
2022/08/12 13:37:52;;;;;;;13.30;9.20;;;;;;;;;;5007793;28;20128;-79
2022/08/12 13:40:22;;;;;;;15.88;9.00;;;;;;;;;;5008406;28;20033;-79
2022/08/12 13:42:49;;;;;;;15.35;8.23;;;;;;;;;;5008291;28;20453;-78
2022/08/12 13:45:15;;;;;;;10.93;7.63;;;;;;;;;;5008478;28;20041;-78
2022/08/12 13:48:07;;;;;;;10.98;8.18;;;;;;;;;;5007406;28;20026;-78
2022/08/12 13:50:37;;;;;;;11.43;8.23;;;;;;;;;;5009493;28;20088;-78
2022/08/12 13:53:08;;;;;;;13.07;7.60;;;;;;;;;;5007632;28;20839;-76
2022/08/12 13:55:34;;;;;;;10.50;7.72;;;;;;;;;;5006873;28;20038;-77
2022/08/12 13:58:00;;;;;;;12.38;8.32;;;;;;;;;;5007930;28;20034;-78
2022/08/12 14:00:26;;;;;;;11.65;7.88;;;;;;;;;;5008100;28;20030;-77
2022/08/12 14:02:52;;;;;;;13.38;7.65;;;;;;;;;;5008111;28;20034;-77
2022/08/12 14:05:18;;;;;;;11.52;7.40;;;;;;;;;;5007823;28;20099;-76
2022/08/12 14:07:57;;;;;;;11.52;7.60;;;;;;;;;;5007164;28;20034;-77
2022/08/12 14:10:37;;;;;;;11.55;7.60;;;;;;;;;;5007675;28;20037;-76
2022/08/12 14:13:09;;;;;;;12.55;7.18;;;;;;;;;;5007660;28;20616;-77
2022/08/12 14:15:47;;;;;;;11.10;7.82;;;;;;;;;;5007884;28;20482;-79
2022/08/12 14:18:27;;;;;;;15.88;7.78;;;;;;;;;;5006269;28;20026;-78
2022/08/12 14:21:02;;;;;;;12.93;7.40;;;;;;;;;;5007793;28;20431;-78
2022/08/12 14:23:37;;;;;;;9.98;7.10;;;;;;;;;;5007655;28;20529;-77
2022/08/12 14:26:09;;;;;;;12.35;7.15;;;;;;;;;;5007597;28;20022;-77
2022/08/12 14:28:36;;;;;;;14.10;7.75;;;;;;;;;;5007270;28;20033;-76
2022/08/12 14:31:05;;;;;;;11.32;7.72;;;;;;;;;;5007468;28;20026;-77
2022/08/12 14:33:51;;;;;;;13.73;7.78;;;;;;;;;;5007728;28;20030;-77
2022/08/12 14:36:24;;;;;;;13.60;8.20;;;;;;;;;;5006942;28;20025;-77
2022/08/12 14:38:53;;;;;;;12.43;8.10;;;;;;;;;;5007448;28;20030;-76
2022/08/12 14:41:25;;;;;;;11.43;7.57;;;;;;;;;;5007456;28;20379;-76
2022/08/12 14:43:51;;;;;;;14.30;8.30;;;;;;;;;;5007154;28;20032;-77
2022/08/12 14:46:18;;;;;;;12.38;8.88;;;;;;;;;;5007046;28;20105;-77
2022/08/12 14:48:47;;;;;;;14.63;9.60;;;;;;;;;;5007293;28;20026;-75
2022/08/12 14:51:14;;;;;;;13.45;9.07;;;;;;;;;;5006849;28;20025;-76
2022/08/12 14:53:42;;;;;;;15.00;9.48;;;;;;;;;;5007285;28;20093;-76
2022/08/12 14:56:08;;;;;;;17.65;9.85;;;;;;;;;;5007191;28;20537;-77
2022/08/12 14:58:34;;;;;;;14.07;9.45;;;;;;;;;;5005871;28;20053;-76
2022/08/12 15:03:43;;;;;;;13.25;9.10;;;;;;;;;;5007336;28;20512;-77
2022/08/12 15:06:10;;;;;;;13.88;8.93;;;;;;;;;;5006116;28;20073;-77
2022/08/12 15:08:40;;;;;;;14.45;8.93;;;;;;;;;;5006934;28;20041;-77
2022/08/12 15:11:15;;;;;;;14.52;8.77;;;;;;;;;;5006851;28;20034;-77
2022/08/12 15:13:48;;;;;;;13.25;8.45;;;;;;;;;;5006869;28;20034;-76
2022/08/12 15:16:15;;;;;;;14.68;7.97;;;;;;;;;;5006812;28;20481;-77
2022/08/12 15:18:42;;;;;;;11.75;7.78;;;;;;;;;;5006486;28;20030;-77
2022/08/12 15:21:08;;;;;;;11.63;7.50;;;;;;;;;;5006646;28;20041;-77
2022/08/12 15:23:34;;;;;;;12.27;7.47;;;;;;;;;;5006818;28;20030;-77
2022/08/12 15:26:05;;;;;;;12.27;7.53;;;;;;;;;;5005373;28;20026;-76
2022/08/12 15:28:34;;;;;;;12.90;7.32;;;;;;;;;;5006687;28;20022;-77
2022/08/12 15:31:01;;;;;;;12.23;7.65;;;;;;;;;;5006762;28;20396;-78
2022/08/12 15:33:27;;;;;;;13.88;7.68;;;;;;;;;;5006591;28;20082;-76
2022/08/12 15:35:54;;;;;;;13.90;7.15;;;;;;;;;;5006522;28;20049;-78
2022/08/12 15:38:28;;;;;;;9.32;6.85;;;;;;;;;;5006379;28;20030;-77
2022/08/12 15:40:56;;;;;;;13.25;7.60;;;;;;;;;;5006491;28;20022;-78
2022/08/12 15:43:23;;;;;;;12.30;7.53;;;;;;;;;;5006569;28;20091;-77
2022/08/12 15:45:48;;;;;;;10.18;7.35;;;;;;;;;;5006599;28;20026;-78
2022/08/12 15:48:14;;;;;;;12.52;7.43;;;;;;;;;;5006340;28;20032;-77
2022/08/12 15:50:42;;;;;;;11.38;6.80;;;;;;;;;;5006437;28;20030;-77
2022/08/12 15:53:07;;;;;;;14.88;6.80;;;;;;;;;;5006034;28;20506;-78
2022/08/12 15:55:33;;;;;;;12.90;6.75;;;;;;;;;;5006418;28;20540;-76
2022/08/12 15:58:00;;;;;;;12.50;6.97;;;;;;;;;;5006104;28;20026;-76
2022/08/12 16:00:30;;;;;;;12.35;7.10;;;;;;;;;;5006026;28;20117;-76
2022/08/12 16:03:00;;;;;;;14.02;7.45;;;;;;;;;;5006535;28;20048;-76
2022/08/12 16:05:28;;;;;;;13.68;7.70;;;;;;;;;;5006013;28;20110;-76
2022/08/12 16:07:54;;;;;;;15.88;7.10;;;;;;;;;;5005766;28;20026;-76
2022/08/12 16:10:22;;;;;;;12.95;7.40;;;;;;;;;;5008347;28;20036;-77
2022/08/12 16:12:52;;;;;;;11.38;7.28;;;;;;;;;;5009421;28;20113;-76
2022/08/12 16:15:20;;;;;;;15.23;7.75;;;;;;;;;;5009578;28;20550;-77
2022/08/12 16:17:47;;;;;;;14.70;7.13;;;;;;;;;;5009427;28;20388;-76
2022/08/12 16:20:20;;;;;;;11.05;6.40;;;;;;;;;;5009656;28;20025;-76
2022/08/12 16:23:10;;;;;;;9.13;6.03;;;;;;;;;;5009031;28;20113;-77
2022/08/12 16:25:39;;;;;;;13.10;6.18;;;;;;;;;;5009524;28;20057;-76
2022/08/12 16:28:05;;;;;;;15.32;6.55;;;;;;;;;;5009096;28;20056;-76
2022/08/12 16:30:33;;;;;;;11.55;5.80;;;;;;;;;;5009270;28;20022;-77
2022/08/12 16:33:13;;;;;;;12.43;6.25;;;;;;;;;;5009307;28;20505;-76
2022/08/12 16:35:40;;;;;;;10.65;6.03;;;;;;;;;;5009106;28;20022;-77
2022/08/12 16:38:07;;;;;;;14.65;6.10;;;;;;;;;;5008658;28;20038;-76
2022/08/12 16:40:34;;;;;;;11.82;5.97;;;;;;;;;;5009269;28;20053;-77
2022/08/12 16:43:02;;;;;;;8.32;6.10;;;;;;;;;;5009299;28;20014;-77